Time;durP1;ratioP1;P1;durP2;ratioP2;P2;SDS_P1;SDS_P2;PMS_P1;PMS_P2;Temp;Humidity;BMP_temperature;BMP_pressure;BME280_temperature;BME280_humidity;BME280_pressure;Samples;Min_cycle;Max_cycle;Signal;HPM_P1;HPM_P2
2022/10/05 00:00:21;;;;;;;0.20;0.20;;;;;;;16.40;76.31;101591.84;2079678;28;20460;-68
2022/10/05 00:01:26;;;;;;;0.30;0.30;;;;;;;16.41;76.35;101589.94;2083462;28;20045;-68
2022/10/05 00:02:32;;;;;;;0.25;0.25;;;;;;;16.39;76.32;101592.97;2086528;28;20156;-68
2022/10/05 00:03:35;;;;;;;0.20;0.20;;;;;;;16.38;76.57;101593.34;2084187;28;20086;-68
2022/10/05 00:04:38;;;;;;;0.20;0.20;;;;;;;16.38;76.46;101596.06;2072585;28;20102;-68
2022/10/05 00:05:44;;;;;;;0.30;0.30;;;;;;;16.38;76.36;101601.53;2073856;28;20057;-68
2022/10/05 00:06:55;;;;;;;0.28;0.28;;;;;;;16.38;76.41;101585.97;2079692;28;20437;-68
2022/10/05 00:08:10;;;;;;;0.20;0.20;;;;;;;16.37;76.57;101589.06;2081160;28;20060;-69
2022/10/05 00:09:16;;;;;;;0.30;0.30;;;;;;;16.37;76.45;101589.84;2079724;28;20061;-68
2022/10/05 00:10:18;;;;;;;0.30;0.30;;;;;;;16.37;76.55;101589.84;2087376;28;20048;-68
2022/10/05 00:11:21;;;;;;;0.30;0.30;;;;;;;16.39;76.14;101581.31;2086991;28;20378;-68
2022/10/05 00:12:25;;;;;;;0.30;0.30;;;;;;;16.38;76.28;101577.78;2087330;28;20075;-67
2022/10/05 00:13:30;;;;;;;0.30;0.30;;;;;;;16.39;76.25;101581.31;2081086;28;20058;-68
2022/10/05 00:14:35;;;;;;;0.30;0.30;;;;;;;16.36;76.14;101574.63;2070866;28;20080;-67
2022/10/05 00:15:38;;;;;;;0.20;0.20;;;;;;;16.35;76.15;101570.34;2077409;28;20528;-68
2022/10/05 00:16:40;;;;;;;0.20;0.20;;;;;;;16.35;76.21;101581.25;2087709;28;20064;-67
2022/10/05 00:17:43;;;;;;;0.22;0.22;;;;;;;16.27;76.14;101574.09;2081499;28;20524;-67
2022/10/05 00:18:48;;;;;;;0.30;0.30;;;;;;;16.27;76.32;101563.19;2083832;28;20088;-67
2022/10/05 00:19:52;;;;;;;0.30;0.30;;;;;;;16.28;76.13;101567.47;2085192;28;20056;-67
2022/10/05 00:20:56;;;;;;;0.20;0.20;;;;;;;16.31;75.93;101572.22;2083127;28;20115;-68
2022/10/05 00:22:00;;;;;;;0.22;0.22;;;;;;;16.29;76.09;101566.34;2078068;28;20045;-68
2022/10/05 00:23:06;;;;;;;0.20;0.20;;;;;;;16.30;76.13;101562.44;2076190;28;20065;-68
2022/10/05 00:24:10;;;;;;;0.20;0.20;;;;;;;16.31;75.66;101558.59;2085215;28;20049;-68
2022/10/05 00:25:15;;;;;;;0.30;0.30;;;;;;;16.30;76.00;101559.72;2086130;28;20061;-68
2022/10/05 00:26:21;;;;;;;0.30;0.30;;;;;;;16.30;75.96;101551.56;2080014;28;20532;-68
2022/10/05 00:27:25;;;;;;;0.20;0.20;;;;;;;16.31;75.95;101563.25;2083890;28;20767;-69
2022/10/05 00:28:30;;;;;;;0.20;0.20;;;;;;;16.29;75.83;101563.63;2079924;28;20045;-69
2022/10/05 00:29:33;;;;;;;0.30;0.30;;;;;;;16.30;75.91;101570.63;2082349;28;20720;-69
2022/10/05 00:30:36;;;;;;;0.20;0.20;;;;;;;16.29;75.93;101563.63;2083832;28;20053;-68
2022/10/05 00:31:38;;;;;;;0.20;0.20;;;;;;;16.31;75.69;101569.50;2081068;28;20056;-68
2022/10/05 00:32:41;;;;;;;0.20;0.20;;;;;;;16.30;75.74;101572.56;2081937;28;20072;-69
2022/10/05 00:33:43;;;;;;;0.20;0.20;;;;;;;16.30;75.61;101569.84;2083719;28;20055;-68
2022/10/05 00:34:47;;;;;;;0.20;0.20;;;;;;;16.29;75.43;101568.28;2081499;28;20512;-69
2022/10/05 00:35:49;;;;;;;0.20;0.20;;;;;;;16.27;75.75;101562.38;2082898;28;20473;-68
2022/10/05 00:36:53;;;;;;;0.25;0.25;;;;;;;16.29;75.48;101565.53;2086061;28;20061;-68
2022/10/05 00:37:55;;;;;;;0.13;0.13;;;;;;;16.27;75.55;101563.19;2087191;28;20053;-68
2022/10/05 00:39:01;;;;;;;0.20;0.20;;;;;;;16.28;75.27;101556.56;2080456;28;20106;-68
2022/10/05 00:40:13;;;;;;;0.20;0.20;;;;;;;16.27;75.44;101552.28;2081873;28;20132;-68
2022/10/05 00:41:20;;;;;;;0.20;0.20;;;;;;;16.27;75.35;101546.84;2082319;28;20045;-68
2022/10/05 00:42:37;;;;;;;0.20;0.20;;;;;;;16.25;75.23;101548.34;2081860;28;20176;-68
2022/10/05 00:44:18;;;;;;;0.30;0.30;;;;;;;16.19;75.36;101545.13;2080766;28;20486;-68
2022/10/05 00:45:24;;;;;;;0.20;0.20;;;;;;;16.13;75.28;101534.88;2073183;28;20049;-68
2022/10/05 00:46:37;;;;;;;0.22;0.22;;;;;;;16.16;74.82;101537.66;2080490;28;20056;-68
2022/10/05 00:47:50;;;;;;;0.20;0.20;;;;;;;16.16;74.88;101540.41;2086692;28;20053;-68
2022/10/05 00:49:03;;;;;;;0.20;0.20;;;;;;;16.17;74.83;101533.78;2085500;28;20060;-68
2022/10/05 00:50:32;;;;;;;0.20;0.20;;;;;;;16.16;74.90;101534.94;2071191;28;20470;-68
2022/10/05 00:51:36;;;;;;;0.20;0.20;;;;;;;16.15;74.81;101532.59;2071803;28;20060;-68
2022/10/05 00:52:50;;;;;;;0.20;0.20;;;;;;;16.17;74.63;101541.19;2062717;28;20694;-67
2022/10/05 00:54:16;;;;;;;0.20;0.20;;;;;;;16.12;74.36;101534.09;2081130;28;20054;-68
2022/10/05 00:55:31;;;;;;;0.30;0.30;;;;;;;16.13;74.56;101545.78;2083415;28;20037;-68
2022/10/05 00:56:54;;;;;;;0.20;0.20;;;;;;;16.12;74.85;101528.66;2083796;28;20516;-68
2022/10/05 00:58:06;;;;;;;0.20;0.20;;;;;;;16.14;74.73;101539.19;2076779;28;20049;-68
2022/10/05 00:59:20;;;;;;;0.20;0.20;;;;;;;16.15;74.65;101538.03;2079732;28;20061;-68
2022/10/05 01:00:24;;;;;;;0.20;0.20;;;;;;;16.15;74.76;101538.81;2080636;28;20057;-68
2022/10/05 01:01:32;;;;;;;0.20;0.20;;;;;;;16.18;74.55;101524.47;2085613;28;20051;-68
2022/10/05 01:02:48;;;;;;;0.30;0.30;;;;;;;16.14;74.54;101545.41;2082164;28;20056;-68
2022/10/05 01:04:00;;;;;;;0.20;0.20;;;;;;;16.17;74.48;101539.25;2086251;28;20865;-68
2022/10/05 01:05:11;;;;;;;0.22;0.22;;;;;;;16.14;74.43;101537.25;2079735;28;20563;-68
2022/10/05 01:06:26;;;;;;;0.20;0.20;;;;;;;16.15;74.51;101538.03;2077010;28;20053;-68
2022/10/05 01:07:37;;;;;;;0.20;0.20;;;;;;;16.14;74.36;101534.50;2071454;28;20050;-68
2022/10/05 01:08:53;;;;;;;0.10;0.10;;;;;;;16.13;74.24;101541.13;2076600;28;20050;-68
2022/10/05 01:10:04;;;;;;;0.30;0.30;;;;;;;16.14;74.50;101542.69;2070357;28;20046;-68
2022/10/05 01:11:13;;;;;;;0.20;0.20;;;;;;;16.12;74.74;101531.38;2077308;28;20056;-68
2022/10/05 01:12:24;;;;;;;0.30;0.30;;;;;;;16.13;74.42;101535.66;2085312;28;20447;-68
2022/10/05 01:13:34;;;;;;;0.30;0.30;;;;;;;16.14;74.32;101534.50;2079764;28;20091;-69
2022/10/05 01:14:45;;;;;;;0.20;0.20;;;;;;;16.16;74.57;101534.94;2080809;28;20524;-68
2022/10/05 01:15:53;;;;;;;;;;;;;;;15.96;75.06;101530.69;2085777;28;20064;-69
2022/10/05 01:17:00;;;;;;;0.20;0.20;;;;;;;16.05;74.83;101523.06;2084385;28;20391;-69
2022/10/05 01:18:12;;;;;;;0.30;0.30;;;;;;;16.08;74.73;101527.78;2083103;28;20053;-69
2022/10/05 01:19:33;;;;;;;0.20;0.20;;;;;;;16.08;74.85;101519.63;2086326;28;20048;-68
2022/10/05 01:20:46;;;;;;;0.20;0.20;;;;;;;16.07;74.70;101512.59;2081727;28;20045;-68
2022/10/05 01:21:52;;;;;;;0.20;0.20;;;;;;;16.10;74.75;101516.53;2078311;28;20115;-68
2022/10/05 01:23:26;;;;;;;0.30;0.30;;;;;;;16.07;74.56;101523.50;2078908;28;20060;-68
2022/10/05 01:24:44;;;;;;;0.22;0.22;;;;;;;16.03;74.77;101519.91;2080993;28;20148;-68
2022/10/05 01:26:00;;;;;;;0.28;0.28;;;;;;;16.03;74.89;101514.47;2072469;28;20818;-68
2022/10/05 01:27:15;;;;;;;0.20;0.20;;;;;;;16.05;74.91;101508.66;2078989;28;20069;-68
2022/10/05 01:28:24;;;;;;;0.22;0.22;;;;;;;16.03;75.05;101511.72;2071830;28;20453;-69
2022/10/05 01:29:34;;;;;;;0.13;0.13;;;;;;;16.05;75.07;101506.72;2064578;28;20175;-68
2022/10/05 01:30:42;;;;;;;0.20;0.20;;;;;;;16.07;75.11;101504.44;2073856;28;20513;-68
2022/10/05 01:31:53;;;;;;;0.20;0.20;;;;;;;16.09;75.16;101517.69;2081896;28;20053;-67
2022/10/05 01:33:01;;;;;;;0.20;0.20;;;;;;;16.08;75.03;101514.16;2080298;28;20115;-68
2022/10/05 01:34:09;;;;;;;0.30;0.30;;;;;;;16.08;75.10;101506.00;2080915;28;20060;-68
2022/10/05 01:35:25;;;;;;;0.20;0.20;;;;;;;16.06;74.93;101491.16;2085901;28;20053;-67
2022/10/05 01:36:33;;;;;;;0.30;0.30;;;;;;;16.05;75.07;101495.81;2080964;28;20045;-68
2022/10/05 01:37:47;;;;;;;0.30;0.30;;;;;;;16.04;75.34;101496.19;2074010;28;20062;-68
2022/10/05 01:38:56;;;;;;;0.20;0.20;;;;;;;16.05;75.24;101495.03;2073370;28;20062;-68
2022/10/05 01:40:05;;;;;;;;;;;;;;;15.87;75.81;101488.47;2072207;28;20050;-67
2022/10/05 01:41:18;;;;;;;0.20;0.20;;;;;;;15.96;75.56;101491.75;2072030;28;20024;-68
2022/10/05 01:42:31;;;;;;;0.20;0.20;;;;;;;15.96;75.55;101491.75;2084639;28;20182;-68
2022/10/05 01:43:39;;;;;;;0.20;0.20;;;;;;;15.96;75.73;101489.03;2086632;28;20159;-68
2022/10/05 01:44:53;;;;;;;0.25;0.25;;;;;;;15.92;75.72;101480.78;2080259;28;20106;-68
2022/10/05 01:45:59;;;;;;;0.20;0.20;;;;;;;15.94;75.45;101478.50;2081533;28;20049;-67
2022/10/05 01:47:09;;;;;;;0.20;0.20;;;;;;;15.94;75.67;101480.41;2081145;28;20080;-68
2022/10/05 01:48:19;;;;;;;0.20;0.20;;;;;;;15.93;75.81;101473.41;2076723;28;20053;-68
2022/10/05 01:49:32;;;;;;;;;;;;;;;15.75;76.27;101464.91;2073554;28;20050;-68
2022/10/05 01:50:47;;;;;;;0.20;0.20;;;;;;;15.81;76.52;101468.91;2073647;28;19925;-68
2022/10/05 01:52:02;;;;;;;0.20;0.20;;;;;;;15.86;75.73;101481.44;2079973;28;20716;-68
2022/10/05 01:53:17;;;;;;;0.22;0.22;;;;;;;15.84;76.19;101467.41;2072360;28;20050;-67
2022/10/05 01:54:31;;;;;;;0.10;0.10;;;;;;;15.81;76.26;101471.63;2069222;28;20049;-68
2022/10/05 01:55:41;;;;;;;0.30;0.30;;;;;;;15.85;76.17;101471.69;2080689;28;20509;-68
2022/10/05 01:56:47;;;;;;;;;;;;;;;15.67;77.09;101467.84;2084742;28;20492;-68
2022/10/05 01:58:03;;;;;;;0.30;0.30;;;;;;;15.72;76.64;101476.50;2074978;28;19975;-68
2022/10/05 01:59:17;;;;;;;0.30;0.30;;;;;;;15.76;76.65;101482.81;2076479;28;20050;-68
2022/10/05 02:00:21;;;;;;;0.25;0.25;;;;;;;15.80;76.43;101480.94;2078305;28;20147;-68
2022/10/05 02:01:31;;;;;;;0.20;0.20;;;;;;;15.82;76.49;101481.38;2079324;28;20056;-68
2022/10/05 02:02:37;;;;;;;0.20;0.20;;;;;;;15.82;76.65;101473.22;2087765;28;20485;-68
2022/10/05 02:03:59;;;;;;;0.20;0.20;;;;;;;15.77;76.97;101478.94;2088190;28;20049;-68
2022/10/05 02:05:07;;;;;;;0.20;0.20;;;;;;;15.81;76.43;101479.78;2078382;28;20057;-68
2022/10/05 02:06:17;;;;;;;0.20;0.20;;;;;;;15.83;76.58;101466.63;2078358;28;20076;-67
2022/10/05 02:07:22;;;;;;;0.20;0.20;;;;;;;15.84;76.67;101476.34;2080701;28;20072;-68
2022/10/05 02:08:31;;;;;;;0.20;0.20;;;;;;;15.82;76.68;101466.97;2083272;28;20060;-67
2022/10/05 02:09:40;;;;;;;0.20;0.20;;;;;;;15.83;76.66;101463.09;2078837;28;20528;-67
2022/10/05 02:10:50;;;;;;;0.30;0.30;;;;;;;15.78;76.75;101457.94;2074053;28;20041;-67
2022/10/05 02:11:56;;;;;;;0.30;0.30;;;;;;;15.80;76.69;101453.72;2075121;28;20057;-68
2022/10/05 02:13:06;;;;;;;0.30;0.30;;;;;;;15.83;76.83;101457.66;2071922;28;20135;-67
2022/10/05 02:14:11;;;;;;;0.30;0.30;;;;;;;15.79;77.02;101452.13;2065595;28;20058;-68
2022/10/05 02:15:22;;;;;;;0.20;0.20;;;;;;;15.78;77.03;101453.28;2072981;28;20510;-69
2022/10/05 02:16:30;;;;;;;0.30;0.30;;;;;;;15.78;77.46;101452.50;2065441;28;20149;-67
2022/10/05 02:17:48;;;;;;;0.20;0.20;;;;;;;15.72;77.52;101460.19;2069407;28;20056;-68
2022/10/05 02:18:53;;;;;;;0.30;0.30;;;;;;;15.78;77.24;101453.28;2067965;28;20049;-68
2022/10/05 02:20:00;;;;;;;0.20;0.20;;;;;;;15.78;77.14;101456.00;2070697;28;20096;-68
2022/10/05 02:21:03;;;;;;;0.20;0.20;;;;;;;15.79;77.44;101454.84;2079147;28;20062;-68
2022/10/05 02:22:10;;;;;;;0.20;0.20;;;;;;;15.79;77.36;101454.84;2071806;28;20061;-72
2022/10/05 02:23:18;;;;;;;0.20;0.20;;;;;;;15.81;77.20;101463.47;2065366;28;20103;-68
2022/10/05 02:24:24;;;;;;;0.30;0.30;;;;;;;15.82;77.15;101464.25;2074549;28;20128;-68
2022/10/05 02:25:30;;;;;;;0.30;0.30;;;;;;;15.79;77.27;101464.97;2083147;28;20256;-68
2022/10/05 02:26:35;;;;;;;0.30;0.30;;;;;;;15.81;77.29;101458.00;2082543;28;20049;-68
2022/10/05 02:27:49;;;;;;;0.30;0.30;;;;;;;15.78;77.15;101464.19;2081320;28;20050;-68
2022/10/05 02:28:55;;;;;;;0.20;0.20;;;;;;;15.83;77.22;101474.00;2079317;28;20501;-67
2022/10/05 02:30:02;;;;;;;0.30;0.30;;;;;;;15.81;77.49;101459.97;2068444;28;20084;-67
2022/10/05 02:31:14;;;;;;;0.30;0.30;;;;;;;15.83;77.18;101461.16;2068189;28;20417;-68
2022/10/05 02:32:21;;;;;;;0.30;0.30;;;;;;;15.85;77.04;101458.88;2078423;28;20129;-68
2022/10/05 02:33:28;;;;;;;0.30;0.30;;;;;;;15.84;77.25;101465.47;2085433;28;20049;-68
2022/10/05 02:34:37;;;;;;;0.30;0.30;;;;;;;15.85;77.38;101453.44;2076460;28;20083;-67
2022/10/05 02:35:47;;;;;;;0.20;0.20;;;;;;;15.85;77.39;101453.44;2070210;28;20089;-69
2022/10/05 02:37:06;;;;;;;0.28;0.28;;;;;;;15.88;77.38;101457.34;2071506;28;20045;-67
2022/10/05 02:38:13;;;;;;;0.20;0.20;;;;;;;15.87;77.42;101453.84;2073631;28;20061;-68
2022/10/05 02:39:24;;;;;;;0.28;0.28;;;;;;;15.88;77.57;101462.81;2065889;28;20498;-68
2022/10/05 02:40:35;;;;;;;;;;;;;;;15.67;78.10;101455.03;2066267;28;20050;-68
2022/10/05 02:41:45;;;;;;;0.30;0.30;;;;;;;15.75;77.97;101453.22;2075491;28;19922;-68
2022/10/05 02:42:58;;;;;;;0.20;0.20;;;;;;;15.81;77.39;101463.47;2079434;28;20616;-67
2022/10/05 02:44:13;;;;;;;0.30;0.30;;;;;;;15.78;77.43;101458.72;2080891;28;20799;-67
2022/10/05 02:45:26;;;;;;;0.20;0.20;;;;;;;15.80;77.67;101456.44;2080301;28;20766;-67
2022/10/05 02:46:35;;;;;;;0.25;0.25;;;;;;;15.81;77.46;101460.72;2087257;28;20141;-67
2022/10/05 02:47:45;;;;;;;0.20;0.20;;;;;;;15.78;77.65;101458.72;2069684;28;20434;-67
2022/10/05 02:48:57;;;;;;;0.30;0.30;;;;;;;15.81;77.58;101465.41;2053931;28;20058;-66
2022/10/05 02:50:07;;;;;;;0.28;0.28;;;;;;;15.79;77.74;101463.03;2064669;28;20103;-69
2022/10/05 02:51:17;;;;;;;0.20;0.20;;;;;;;15.80;77.50;101463.81;2080182;28;20053;-70
2022/10/05 02:52:27;;;;;;;0.20;0.20;;;;;;;15.78;77.66;101464.19;2078389;28;20108;-70
2022/10/05 02:53:37;;;;;;;0.30;0.30;;;;;;;15.81;77.52;101459.97;2070641;28;20054;-70
2022/10/05 02:54:51;;;;;;;0.30;0.30;;;;;;;15.78;77.65;101453.28;2077136;28;20485;-70
2022/10/05 02:56:09;;;;;;;0.30;0.30;;;;;;;15.80;77.79;101455.66;2084571;28;20057;-70
2022/10/05 02:57:19;;;;;;;0.30;0.30;;;;;;;15.79;78.15;101452.13;2083515;28;20634;-70
2022/10/05 02:58:24;;;;;;;0.22;0.22;;;;;;;15.80;77.62;101434.66;2077910;28;20495;-71
2022/10/05 02:59:34;;;;;;;0.30;0.30;;;;;;;15.79;77.96;101456.81;2072190;28;20436;-71
2022/10/05 03:00:49;;;;;;;0.30;0.30;;;;;;;15.77;77.60;101451.72;2071259;28;20050;-71
2022/10/05 03:01:57;;;;;;;0.30;0.30;;;;;;;15.68;77.85;101448.41;2066227;28;20109;-70
2022/10/05 03:03:07;;;;;;;0.30;0.30;;;;;;;15.73;78.02;101442.69;2070005;28;20152;-71
2022/10/05 03:04:20;;;;;;;0.30;0.30;;;;;;;15.74;77.64;101446.22;2071710;28;20050;-70
2022/10/05 03:05:29;;;;;;;0.30;0.30;;;;;;;15.75;78.13;101439.59;2069226;28;20050;-70
2022/10/05 03:06:39;;;;;;;0.30;0.30;;;;;;;15.75;77.92;101443.13;2069853;28;20081;-70
2022/10/05 03:07:55;;;;;;;0.30;0.30;;;;;;;15.76;77.65;101443.91;2073104;28;20497;-70
2022/10/05 03:09:03;;;;;;;0.20;0.20;;;;;;;15.78;77.68;101449.78;2087519;28;20159;-70
2022/10/05 03:10:11;;;;;;;0.30;0.30;;;;;;;15.77;77.84;101446.28;2077450;28;20789;-70
2022/10/05 03:11:22;;;;;;;0.30;0.30;;;;;;;15.77;77.71;101446.28;2063716;28;20493;-70
2022/10/05 03:12:39;;;;;;;0.20;0.20;;;;;;;15.77;77.57;101448.22;2078364;28;20049;-70
2022/10/05 03:13:50;;;;;;;0.20;0.20;;;;;;;15.79;77.37;101446.69;2078390;28;20489;-70
2022/10/05 03:15:02;;;;;;;0.20;0.20;;;;;;;15.78;77.48;101436.16;2076762;28;20472;-70
2022/10/05 03:16:20;;;;;;;0.35;0.35;;;;;;;15.77;77.28;101442.75;2074754;28;20061;-70
2022/10/05 03:17:26;;;;;;;0.30;0.30;;;;;;;15.78;77.15;101442.41;2080803;28;20107;-71
2022/10/05 03:18:44;;;;;;;0.30;0.30;;;;;;;15.78;77.21;101438.88;2084723;28;20048;-71
2022/10/05 03:20:06;;;;;;;0.30;0.30;;;;;;;15.73;77.52;101434.53;2080527;28;20080;-71
2022/10/05 03:21:25;;;;;;;0.30;0.30;;;;;;;15.77;77.37;101440.84;2073160;28;20045;-70
2022/10/05 03:22:42;;;;;;;0.30;0.30;;;;;;;15.73;77.55;101418.19;2069901;28;20400;-70
2022/10/05 03:24:01;;;;;;;0.30;0.30;;;;;;;15.73;76.92;101423.63;2057836;28;20054;-69
2022/10/05 03:25:55;;;;;;;0.40;0.40;;;;;;;15.66;77.13;101431.69;2067143;28;20434;-69
2022/10/05 03:27:03;;;;;;;0.40;0.40;;;;;;;15.74;76.84;101425.22;2045911;29;20058;-69
2022/10/05 03:28:12;;;;;;;0.30;0.30;;;;;;;15.75;76.88;101426.78;2038666;29;20051;-69
2022/10/05 03:29:25;;;;;;;0.25;0.25;;;;;;;15.75;76.72;101424.06;2046578;28;20483;-69
2022/10/05 03:30:33;;;;;;;0.30;0.30;;;;;;;15.75;76.51;101417.81;2049446;28;20057;-69
2022/10/05 03:31:41;;;;;;;0.30;0.30;;;;;;;15.77;76.30;101413.59;2043524;28;20047;-69
2022/10/05 03:32:54;;;;;;;0.28;0.28;;;;;;;15.77;76.31;101413.59;2069728;28;20056;-69
2022/10/05 03:34:05;;;;;;;0.30;0.30;;;;;;;15.77;76.10;101418.25;2073916;28;20537;-69
2022/10/05 03:35:14;;;;;;;0.30;0.30;;;;;;;15.78;76.13;101415.16;2064411;28;20125;-69
2022/10/05 03:36:27;;;;;;;0.30;0.30;;;;;;;15.78;76.00;101414.38;2077913;28;20049;-69
2022/10/05 03:37:38;;;;;;;0.30;0.30;;;;;;;15.73;75.55;101433.75;2083189;28;20053;-69
2022/10/05 03:38:47;;;;;;;0.22;0.22;;;;;;;15.78;75.68;101420.63;2085239;28;20130;-69
2022/10/05 03:39:56;;;;;;;0.30;0.30;;;;;;;15.81;75.67;101425.34;2082133;28;20136;-71
2022/10/05 03:41:08;;;;;;;0.30;0.30;;;;;;;15.79;75.82;101422.19;2073883;28;20048;-70
2022/10/05 03:42:26;;;;;;;0.30;0.30;;;;;;;15.78;75.36;101428.78;2059799;28;20058;-71
2022/10/05 03:44:00;;;;;;;0.30;0.30;;;;;;;15.74;75.56;101433.38;2069530;28;20611;-70
2022/10/05 03:45:07;;;;;;;0.30;0.30;;;;;;;15.78;75.34;101431.50;2079801;28;20049;-70
2022/10/05 03:46:18;;;;;;;0.35;0.35;;;;;;;15.80;75.00;101423.78;2084004;28;20083;-70
2022/10/05 03:47:35;;;;;;;0.30;0.30;;;;;;;15.82;75.14;101418.75;2074633;28;20053;-71
2022/10/05 03:48:49;;;;;;;0.30;0.30;;;;;;;15.82;74.88;101421.47;2058696;28;20062;-69
2022/10/05 03:50:05;;;;;;;0.30;0.30;;;;;;;15.84;74.71;101419.16;2065477;28;20171;-70
2022/10/05 03:51:14;;;;;;;0.30;0.30;;;;;;;15.83;74.91;101423.06;2071769;28;20076;-70
2022/10/05 03:52:23;;;;;;;0.20;0.20;;;;;;;15.81;74.51;101425.34;2076756;28;20045;-70
2022/10/05 03:53:29;;;;;;;0.30;0.30;;;;;;;15.85;74.49;101419.97;2078754;28;20124;-70
2022/10/05 03:54:38;;;;;;;0.30;0.30;;;;;;;15.87;74.45;101425.84;2082280;28;20071;-70
2022/10/05 03:55:42;;;;;;;0.30;0.30;;;;;;;15.85;74.46;101420.75;2076069;28;20069;-70
2022/10/05 03:56:52;;;;;;;0.30;0.30;;;;;;;15.84;74.30;101424.63;2070588;28;20693;-70
2022/10/05 03:57:58;;;;;;;0.30;0.30;;;;;;;15.83;74.34;101416.81;2071355;28;20501;-70
2022/10/05 03:59:08;;;;;;;0.30;0.30;;;;;;;15.85;74.33;101420.75;2066645;28;20095;-70
2022/10/05 04:00:14;;;;;;;0.30;0.30;;;;;;;15.84;74.20;101416.44;2077150;28;20057;-71
2022/10/05 04:01:31;;;;;;;0.30;0.30;;;;;;;15.83;74.22;101412.16;2081045;28;20080;-70
2022/10/05 04:02:40;;;;;;;0.30;0.30;;;;;;;15.85;74.06;101409.88;2080880;28;20049;-70
2022/10/05 04:03:47;;;;;;;0.25;0.25;;;;;;;15.85;73.93;101418.03;2080906;28;20106;-70
2022/10/05 04:04:56;;;;;;;0.30;0.30;;;;;;;15.84;74.17;101411.00;2073834;28;20104;-71
2022/10/05 04:06:04;;;;;;;0.30;0.30;;;;;;;15.86;73.92;101399.75;2070813;28;20130;-70
2022/10/05 04:07:26;;;;;;;0.30;0.30;;;;;;;15.85;74.04;101409.88;2065409;28;20050;-70
2022/10/05 04:08:35;;;;;;;0.40;0.40;;;;;;;15.84;74.26;101405.56;2077960;28;20394;-70
2022/10/05 04:09:41;;;;;;;0.30;0.30;;;;;;;15.79;73.67;101422.19;2085598;28;20076;-70
2022/10/05 04:10:49;;;;;;;0.30;0.30;;;;;;;15.80;73.81;101415.59;2078795;28;20099;-70
2022/10/05 04:12:01;;;;;;;0.30;0.30;;;;;;;15.81;73.72;101397.34;2077790;28;20076;-70
2022/10/05 04:13:12;;;;;;;0.30;0.30;;;;;;;15.79;73.81;101386.78;2083074;28;20050;-70
2022/10/05 04:14:17;;;;;;;;;;;;;;;15.66;74.30;101388.13;2087640;28;20057;-70
2022/10/05 04:15:28;;;;;;;0.40;0.40;;;;;;;15.74;74.05;101383.59;2066494;28;20475;-70
2022/10/05 04:16:37;;;;;;;0.40;0.40;;;;;;;15.77;74.00;101386.38;2063850;28;20050;-70
2022/10/05 04:17:45;;;;;;;0.40;0.40;;;;;;;15.80;73.85;101395.75;2077907;28;20057;-69
2022/10/05 04:18:53;;;;;;;0.30;0.30;;;;;;;15.80;73.73;101385.66;2082052;28;20056;-70
2022/10/05 04:20:02;;;;;;;0.30;0.30;;;;;;;15.80;73.88;101390.31;2081844;28;20136;-70
2022/10/05 04:21:10;;;;;;;0.40;0.40;;;;;;;15.77;74.05;101386.38;2074426;28;20060;-70
2022/10/05 04:22:20;;;;;;;0.30;0.30;;;;;;;15.78;73.87;101377.06;2067599;28;20054;-70
2022/10/05 04:23:32;;;;;;;0.35;0.35;;;;;;;15.78;74.10;101387.94;2071252;28;20042;-70
2022/10/05 04:24:40;;;;;;;0.30;0.30;;;;;;;15.80;73.97;101377.47;2079669;28;20490;-70
2022/10/05 04:25:47;;;;;;;0.40;0.40;;;;;;;15.84;74.30;101380.28;2076610;28;20059;-70
2022/10/05 04:26:55;;;;;;;0.32;0.32;;;;;;;15.84;73.95;101383.75;2076574;28;20046;-70
2022/10/05 04:28:05;;;;;;;0.40;0.40;;;;;;;15.83;73.95;101378.69;2078574;28;20053;-70
2022/10/05 04:29:17;;;;;;;0.30;0.30;;;;;;;15.82;74.15;101375.19;2074485;28;20610;-70
2022/10/05 04:30:21;;;;;;;0.30;0.30;;;;;;;15.84;74.07;101364.72;2069385;28;20045;-70
2022/10/05 04:31:44;;;;;;;0.30;0.30;;;;;;;15.82;73.53;101382.56;2070310;28;20448;-70
2022/10/05 04:32:52;;;;;;;0.30;0.30;;;;;;;15.82;73.76;101386.09;2069609;28;20053;-70
2022/10/05 04:34:10;;;;;;;0.30;0.30;;;;;;;15.78;73.83;101377.06;2074013;28;20042;-70
2022/10/05 04:35:37;;;;;;;0.30;0.30;;;;;;;15.75;73.83;101361.44;2065988;28;20437;-70
2022/10/05 04:36:45;;;;;;;0.45;0.45;;;;;;;15.81;74.17;101359.22;2069946;28;20414;-70
2022/10/05 04:37:56;;;;;;;0.40;0.40;;;;;;;15.73;74.58;101361.00;2069440;28;20045;-70
2022/10/05 04:39:15;;;;;;;0.40;0.40;;;;;;;15.74;74.48;101365.31;2070849;28;20158;-70
2022/10/05 04:40:34;;;;;;;0.30;0.30;;;;;;;15.73;74.59;101355.56;2067811;28;20058;-70
2022/10/05 04:41:50;;;;;;;0.40;0.40;;;;;;;15.75;74.63;101368.81;2071855;28;20054;-70
2022/10/05 04:43:04;;;;;;;0.40;0.40;;;;;;;15.68;74.64;101377.63;2079406;28;20062;-70
2022/10/05 04:44:22;;;;;;;0.30;0.30;;;;;;;15.72;74.70;101366.81;2071244;28;20054;-69
2022/10/05 04:45:34;;;;;;;0.40;0.40;;;;;;;15.71;74.83;101365.25;2065256;28;20125;-70
2022/10/05 04:46:52;;;;;;;0.40;0.40;;;;;;;15.72;74.94;101364.91;2057371;28;20054;-69
2022/10/05 04:48:20;;;;;;;0.40;0.40;;;;;;;15.66;75.35;101355.47;2058846;28;20054;-70
2022/10/05 04:49:40;;;;;;;0.30;0.30;;;;;;;15.66;75.42;101362.81;2081927;28;20049;-70
2022/10/05 04:51:00;;;;;;;0.30;0.30;;;;;;;15.66;75.39;101360.09;2088068;28;20048;-69
2022/10/05 04:52:12;;;;;;;0.30;0.30;;;;;;;15.66;75.58;101350.00;2086026;28;20050;-70
2022/10/05 04:53:25;;;;;;;0.30;0.30;;;;;;;15.67;75.31;101351.56;2078893;28;20125;-70
2022/10/05 04:54:42;;;;;;;0.35;0.35;;;;;;;15.67;75.64;101356.22;2073885;28;20054;-69
2022/10/05 04:55:53;;;;;;;0.40;0.40;;;;;;;15.67;75.71;101343.41;2076927;28;20057;-70
2022/10/05 04:57:00;;;;;;;0.30;0.30;;;;;;;15.65;75.84;101345.69;2070784;28;20077;-70
2022/10/05 04:58:15;;;;;;;0.40;0.40;;;;;;;15.66;75.70;101347.28;2066169;28;20057;-70
2022/10/05 04:59:34;;;;;;;0.30;0.30;;;;;;;15.65;75.54;101356.59;2070146;28;20121;-70
2022/10/05 05:00:51;;;;;;;0.30;0.30;;;;;;;15.65;75.83;101345.69;2079222;28;20549;-70
2022/10/05 05:02:05;;;;;;;0.20;0.20;;;;;;;15.65;75.93;101342.22;2072988;28;20045;-70
2022/10/05 05:03:35;;;;;;;0.20;0.20;;;;;;;15.61;75.86;101338.63;2066257;28;20081;-70
2022/10/05 05:05:21;;;;;;;0.30;0.30;;;;;;;15.60;75.87;101343.28;2074414;28;20049;-70
2022/10/05 05:06:34;;;;;;;0.30;0.30;;;;;;;15.57;76.05;101344.00;2069812;28;20061;-70
2022/10/05 05:07:44;;;;;;;0.40;0.40;;;;;;;15.63;75.90;101342.56;2069065;28;20053;-70
2022/10/05 05:09:12;;;;;;;0.40;0.40;;;;;;;15.58;75.92;101334.69;2080210;28;20524;-70
2022/10/05 05:10:42;;;;;;;0.40;0.40;;;;;;;15.55;76.43;101335.44;2062888;28;20505;-70
2022/10/05 05:12:01;;;;;;;0.30;0.30;;;;;;;15.57;76.06;101343.22;2083240;28;20593;-71
2022/10/05 05:13:17;;;;;;;0.30;0.30;;;;;;;15.55;76.13;101334.63;2076754;28;20728;-71
2022/10/05 05:14:35;;;;;;;0.30;0.30;;;;;;;15.51;76.14;101331.84;2080369;28;20548;-70
2022/10/05 05:15:47;;;;;;;0.30;0.30;;;;;;;15.54;76.15;101333.84;2080897;28;20057;-70
2022/10/05 05:17:01;;;;;;;0.30;0.30;;;;;;;15.55;76.12;101326.47;2064507;28;20065;-70
2022/10/05 05:18:40;;;;;;;0.32;0.32;;;;;;;15.44;76.44;101333.66;2071514;28;20370;-69
2022/10/05 05:19:57;;;;;;;0.40;0.40;;;;;;;15.47;76.67;101332.94;2075887;28;20124;-70
2022/10/05 05:21:07;;;;;;;0.30;0.30;;;;;;;15.49;76.65;101323.25;2074713;28;20141;-69
2022/10/05 05:22:19;;;;;;;0.30;0.30;;;;;;;15.48;76.30;101338.00;2071076;28;20061;-69
2022/10/05 05:23:30;;;;;;;0.30;0.30;;;;;;;15.50;76.53;101338.44;2064690;28;20553;-70
2022/10/05 05:24:45;;;;;;;0.35;0.35;;;;;;;15.48;76.61;101334.50;2074824;28;20628;-70
2022/10/05 05:25:57;;;;;;;0.40;0.40;;;;;;;15.49;76.57;101342.28;2069715;28;20087;-70
2022/10/05 05:27:15;;;;;;;0.40;0.40;;;;;;;15.47;76.69;101343.81;2078508;28;20119;-70
2022/10/05 05:28:24;;;;;;;0.30;0.30;;;;;;;15.48;76.64;101350.81;2072313;28;20498;-71
2022/10/05 05:29:49;;;;;;;0.40;0.40;;;;;;;15.42;76.90;101335.94;2075818;28;20163;-71
2022/10/05 05:30:59;;;;;;;0.40;0.40;;;;;;;15.45;76.35;101338.72;2081074;28;20045;-70
2022/10/05 05:32:11;;;;;;;0.38;0.38;;;;;;;15.46;76.78;101343.00;2082848;28;20510;-70
2022/10/05 05:33:20;;;;;;;0.40;0.40;;;;;;;15.47;76.57;101344.59;2076343;28;20089;-70